sensor_id;sensor_type;location;lat;lon;timestamp;P1;durP1;ratioP1;P2;durP2;ratioP2
25333;SDS011;24559;53.590;9.764;2023-08-21T00:00:25;5.78;;;2.80;;
25333;SDS011;24559;53.590;9.764;2023-08-21T00:02:51;7.63;;;3.17;;
25333;SDS011;24559;53.590;9.764;2023-08-21T00:05:17;3.88;;;1.98;;
25333;SDS011;24559;53.590;9.764;2023-08-21T00:07:43;4.40;;;2.30;;
25333;SDS011;24559;53.590;9.764;2023-08-21T00:10:10;2.13;;;1.90;;
25333;SDS011;24559;53.590;9.764;2023-08-21T00:12:39;4.90;;;2.38;;
25333;SDS011;24559;53.590;9.764;2023-08-21T00:15:05;5.07;;;2.38;;
25333;SDS011;24559;53.590;9.764;2023-08-21T00:17:31;4.25;;;2.60;;
25333;SDS011;24559;53.590;9.764;2023-08-21T00:19:58;6.32;;;2.63;;
25333;SDS011;24559;53.590;9.764;2023-08-21T00:22:24;3.65;;;2.47;;
25333;SDS011;24559;53.590;9.764;2023-08-21T00:24:50;4.20;;;2.53;;
25333;SDS011;24559;53.590;9.764;2023-08-21T00:27:16;4.70;;;2.63;;
25333;SDS011;24559;53.590;9.764;2023-08-21T00:29:42;2.65;;;2.38;;
25333;SDS011;24559;53.590;9.764;2023-08-21T00:32:09;5.10;;;2.58;;
25333;SDS011;24559;53.590;9.764;2023-08-21T00:34:37;5.07;;;2.13;;
25333;SDS011;24559;53.590;9.764;2023-08-21T00:37:04;5.45;;;2.50;;
25333;SDS011;24559;53.590;9.764;2023-08-21T00:39:31;3.90;;;2.30;;
25333;SDS011;24559;53.590;9.764;2023-08-21T00:41:57;3.90;;;2.45;;
25333;SDS011;24559;53.590;9.764;2023-08-21T00:44:23;6.35;;;2.63;;
25333;SDS011;24559;53.590;9.764;2023-08-21T00:46:49;6.70;;;2.70;;
25333;SDS011;24559;53.590;9.764;2023-08-21T00:49:15;6.72;;;3.13;;
25333;SDS011;24559;53.590;9.764;2023-08-21T00:51:42;5.80;;;2.80;;
25333;SDS011;24559;53.590;9.764;2023-08-21T00:54:08;6.22;;;2.60;;
25333;SDS011;24559;53.590;9.764;2023-08-21T00:56:34;6.57;;;2.95;;
25333;SDS011;24559;53.590;9.764;2023-08-21T00:59:01;6.90;;;2.70;;
25333;SDS011;24559;53.590;9.764;2023-08-21T01:01:27;3.75;;;2.33;;
25333;SDS011;24559;53.590;9.764;2023-08-21T01:03:54;7.32;;;2.40;;
25333;SDS011;24559;53.590;9.764;2023-08-21T01:06:20;4.88;;;2.35;;
25333;SDS011;24559;53.590;9.764;2023-08-21T01:08:52;3.88;;;2.53;;
25333;SDS011;24559;53.590;9.764;2023-08-21T01:11:31;5.82;;;2.50;;
25333;SDS011;24559;53.590;9.764;2023-08-21T01:14:08;5.95;;;3.05;;
25333;SDS011;24559;53.590;9.764;2023-08-21T01:16:37;5.90;;;2.78;;
25333;SDS011;24559;53.590;9.764;2023-08-21T01:19:03;5.50;;;2.30;;
25333;SDS011;24559;53.590;9.764;2023-08-21T01:21:30;3.22;;;2.15;;
25333;SDS011;24559;53.590;9.764;2023-08-21T01:23:57;5.68;;;2.40;;
25333;SDS011;24559;53.590;9.764;2023-08-21T01:26:23;4.30;;;2.35;;
25333;SDS011;24559;53.590;9.764;2023-08-21T01:28:49;6.75;;;2.50;;
25333;SDS011;24559;53.590;9.764;2023-08-21T01:31:30;6.38;;;2.30;;
25333;SDS011;24559;53.590;9.764;2023-08-21T01:33:58;5.10;;;2.60;;
25333;SDS011;24559;53.590;9.764;2023-08-21T01:36:25;3.58;;;2.15;;
25333;SDS011;24559;53.590;9.764;2023-08-21T01:38:51;2.10;;;2.00;;
25333;SDS011;24559;53.590;9.764;2023-08-21T01:41:18;5.22;;;2.50;;
25333;SDS011;24559;53.590;9.764;2023-08-21T01:43:44;3.33;;;2.40;;
25333;SDS011;24559;53.590;9.764;2023-08-21T01:46:10;3.28;;;2.17;;
25333;SDS011;24559;53.590;9.764;2023-08-21T01:48:36;6.40;;;2.40;;
25333;SDS011;24559;53.590;9.764;2023-08-21T01:51:03;5.45;;;2.70;;
25333;SDS011;24559;53.590;9.764;2023-08-21T01:53:29;4.40;;;2.58;;
25333;SDS011;24559;53.590;9.764;2023-08-21T01:55:55;6.25;;;3.17;;
25333;SDS011;24559;53.590;9.764;2023-08-21T01:58:21;4.22;;;2.65;;
25333;SDS011;24559;53.590;9.764;2023-08-21T02:00:48;3.88;;;2.00;;
25333;SDS011;24559;53.590;9.764;2023-08-21T02:03:15;5.05;;;2.72;;
25333;SDS011;24559;53.590;9.764;2023-08-21T02:05:41;6.63;;;2.22;;
25333;SDS011;24559;53.590;9.764;2023-08-21T02:08:08;5.13;;;2.67;;
25333;SDS011;24559;53.590;9.764;2023-08-21T02:10:35;2.28;;;2.17;;
25333;SDS011;24559;53.590;9.764;2023-08-21T02:13:01;2.20;;;2.00;;
25333;SDS011;24559;53.590;9.764;2023-08-21T02:15:27;3.78;;;2.50;;
25333;SDS011;24559;53.590;9.764;2023-08-21T02:17:53;4.90;;;3.28;;
25333;SDS011;24559;53.590;9.764;2023-08-21T02:20:19;8.48;;;2.95;;
25333;SDS011;24559;53.590;9.764;2023-08-21T02:22:45;4.47;;;2.92;;
25333;SDS011;24559;53.590;9.764;2023-08-21T02:25:12;6.50;;;3.03;;
25333;SDS011;24559;53.590;9.764;2023-08-21T02:27:38;3.50;;;2.50;;
25333;SDS011;24559;53.590;9.764;2023-08-21T02:30:04;6.32;;;2.50;;
25333;SDS011;24559;53.590;9.764;2023-08-21T02:32:30;6.88;;;2.70;;
25333;SDS011;24559;53.590;9.764;2023-08-21T02:34:59;5.80;;;2.58;;
25333;SDS011;24559;53.590;9.764;2023-08-21T02:37:25;4.95;;;2.38;;
25333;SDS011;24559;53.590;9.764;2023-08-21T02:39:51;4.90;;;3.10;;
25333;SDS011;24559;53.590;9.764;2023-08-21T02:42:17;3.10;;;2.53;;
25333;SDS011;24559;53.590;9.764;2023-08-21T02:44:43;6.93;;;2.80;;
25333;SDS011;24559;53.590;9.764;2023-08-21T02:47:10;3.20;;;2.72;;
25333;SDS011;24559;53.590;9.764;2023-08-21T02:49:36;4.85;;;2.28;;
25333;SDS011;24559;53.590;9.764;2023-08-21T02:52:02;5.40;;;3.15;;
25333;SDS011;24559;53.590;9.764;2023-08-21T02:54:28;7.05;;;2.38;;
25333;SDS011;24559;53.590;9.764;2023-08-21T02:56:54;4.40;;;2.40;;
25333;SDS011;24559;53.590;9.764;2023-08-21T02:59:21;6.47;;;2.38;;
25333;SDS011;24559;53.590;9.764;2023-08-21T03:01:47;4.65;;;3.20;;
25333;SDS011;24559;53.590;9.764;2023-08-21T03:04:13;3.40;;;2.38;;
25333;SDS011;24559;53.590;9.764;2023-08-21T03:06:42;6.90;;;2.70;;
25333;SDS011;24559;53.590;9.764;2023-08-21T03:09:08;3.45;;;2.67;;
25333;SDS011;24559;53.590;9.764;2023-08-21T03:11:35;6.43;;;2.65;;
25333;SDS011;24559;53.590;9.764;2023-08-21T03:14:01;6.75;;;3.00;;
25333;SDS011;24559;53.590;9.764;2023-08-21T03:16:27;3.75;;;2.60;;
25333;SDS011;24559;53.590;9.764;2023-08-21T03:18:57;6.88;;;3.25;;
25333;SDS011;24559;53.590;9.764;2023-08-21T03:23:56;3.50;;;2.70;;
25333;SDS011;24559;53.590;9.764;2023-08-21T03:26:23;3.80;;;2.30;;
25333;SDS011;24559;53.590;9.764;2023-08-21T03:28:49;3.72;;;2.15;;
25333;SDS011;24559;53.590;9.764;2023-08-21T03:31:15;3.58;;;2.60;;
25333;SDS011;24559;53.590;9.764;2023-08-21T03:33:42;8.13;;;3.22;;
25333;SDS011;24559;53.590;9.764;2023-08-21T03:36:09;4.20;;;2.45;;
25333;SDS011;24559;53.590;9.764;2023-08-21T03:38:35;6.88;;;2.92;;
25333;SDS011;24559;53.590;9.764;2023-08-21T03:41:01;7.30;;;3.60;;
25333;SDS011;24559;53.590;9.764;2023-08-21T03:43:28;7.38;;;3.35;;
25333;SDS011;24559;53.590;9.764;2023-08-21T03:45:54;4.82;;;2.80;;
25333;SDS011;24559;53.590;9.764;2023-08-21T03:48:20;7.13;;;3.78;;
25333;SDS011;24559;53.590;9.764;2023-08-21T03:50:49;7.90;;;3.38;;
25333;SDS011;24559;53.590;9.764;2023-08-21T03:53:17;7.72;;;2.85;;
25333;SDS011;24559;53.590;9.764;2023-08-21T03:55:43;6.82;;;3.15;;
25333;SDS011;24559;53.590;9.764;2023-08-21T03:58:10;9.40;;;3.17;;
25333;SDS011;24559;53.590;9.764;2023-08-21T04:00:36;6.63;;;2.88;;
25333;SDS011;24559;53.590;9.764;2023-08-21T04:03:02;4.90;;;3.35;;
25333;SDS011;24559;53.590;9.764;2023-08-21T04:05:28;9.98;;;4.30;;
25333;SDS011;24559;53.590;9.764;2023-08-21T04:07:55;3.70;;;3.30;;
25333;SDS011;24559;53.590;9.764;2023-08-21T04:10:21;7.47;;;3.67;;
25333;SDS011;24559;53.590;9.764;2023-08-21T04:12:47;5.75;;;3.70;;
25333;SDS011;24559;53.590;9.764;2023-08-21T04:15:14;5.53;;;3.55;;
25333;SDS011;24559;53.590;9.764;2023-08-21T04:17:40;10.38;;;4.05;;
25333;SDS011;24559;53.590;9.764;2023-08-21T04:20:06;3.33;;;2.95;;
25333;SDS011;24559;53.590;9.764;2023-08-21T04:22:33;4.57;;;3.60;;
25333;SDS011;24559;53.590;9.764;2023-08-21T04:25:00;6.15;;;3.30;;
25333;SDS011;24559;53.590;9.764;2023-08-21T04:27:26;4.10;;;3.70;;
25333;SDS011;24559;53.590;9.764;2023-08-21T04:29:53;6.93;;;4.07;;
25333;SDS011;24559;53.590;9.764;2023-08-21T04:32:19;7.82;;;4.35;;
25333;SDS011;24559;53.590;9.764;2023-08-21T04:34:45;7.30;;;3.45;;
25333;SDS011;24559;53.590;9.764;2023-08-21T04:37:12;8.13;;;3.78;;
25333;SDS011;24559;53.590;9.764;2023-08-21T04:39:38;10.50;;;4.88;;
25333;SDS011;24559;53.590;9.764;2023-08-21T04:42:04;8.43;;;3.95;;
25333;SDS011;24559;53.590;9.764;2023-08-21T04:44:30;7.25;;;4.43;;
25333;SDS011;24559;53.590;9.764;2023-08-21T04:46:57;9.25;;;4.18;;
25333;SDS011;24559;53.590;9.764;2023-08-21T04:49:24;7.93;;;4.18;;
25333;SDS011;24559;53.590;9.764;2023-08-21T04:51:50;4.57;;;3.47;;
25333;SDS011;24559;53.590;9.764;2023-08-21T04:54:16;9.05;;;4.22;;
25333;SDS011;24559;53.590;9.764;2023-08-21T04:56:43;6.30;;;4.20;;
25333;SDS011;24559;53.590;9.764;2023-08-21T04:59:11;8.55;;;4.40;;
25333;SDS011;24559;53.590;9.764;2023-08-21T05:01:38;8.23;;;4.32;;
25333;SDS011;24559;53.590;9.764;2023-08-21T05:04:04;7.72;;;4.25;;
25333;SDS011;24559;53.590;9.764;2023-08-21T05:06:30;8.43;;;4.18;;
25333;SDS011;24559;53.590;9.764;2023-08-21T05:08:56;6.90;;;4.43;;
25333;SDS011;24559;53.590;9.764;2023-08-21T05:11:23;6.10;;;4.20;;
25333;SDS011;24559;53.590;9.764;2023-08-21T05:13:51;6.78;;;3.83;;
25333;SDS011;24559;53.590;9.764;2023-08-21T05:16:20;8.00;;;3.97;;
25333;SDS011;24559;53.590;9.764;2023-08-21T05:18:46;5.35;;;3.75;;
25333;SDS011;24559;53.590;9.764;2023-08-21T05:21:14;6.85;;;4.25;;
25333;SDS011;24559;53.590;9.764;2023-08-21T05:23:41;6.03;;;3.78;;
25333;SDS011;24559;53.590;9.764;2023-08-21T05:26:09;7.72;;;4.40;;
25333;SDS011;24559;53.590;9.764;2023-08-21T05:28:35;11.98;;;4.10;;
25333;SDS011;24559;53.590;9.764;2023-08-21T05:31:01;9.30;;;4.07;;
25333;SDS011;24559;53.590;9.764;2023-08-21T05:33:39;6.32;;;3.55;;
25333;SDS011;24559;53.590;9.764;2023-08-21T05:36:05;6.90;;;4.05;;
25333;SDS011;24559;53.590;9.764;2023-08-21T05:38:31;5.63;;;3.90;;
25333;SDS011;24559;53.590;9.764;2023-08-21T05:40:58;10.95;;;5.05;;
25333;SDS011;24559;53.590;9.764;2023-08-21T05:43:26;8.23;;;3.90;;
25333;SDS011;24559;53.590;9.764;2023-08-21T05:45:52;7.72;;;4.95;;
25333;SDS011;24559;53.590;9.764;2023-08-21T05:48:20;6.18;;;4.40;;
25333;SDS011;24559;53.590;9.764;2023-08-21T05:50:50;8.05;;;4.63;;
25333;SDS011;24559;53.590;9.764;2023-08-21T05:53:19;7.78;;;4.47;;
25333;SDS011;24559;53.590;9.764;2023-08-21T05:55:47;8.77;;;5.35;;
25333;SDS011;24559;53.590;9.764;2023-08-21T05:58:14;14.18;;;7.10;;
25333;SDS011;24559;53.590;9.764;2023-08-21T06:00:41;12.75;;;6.07;;
25333;SDS011;24559;53.590;9.764;2023-08-21T06:03:09;11.55;;;6.70;;
25333;SDS011;24559;53.590;9.764;2023-08-21T06:05:50;14.88;;;6.22;;
25333;SDS011;24559;53.590;9.764;2023-08-21T06:08:18;14.35;;;6.28;;
25333;SDS011;24559;53.590;9.764;2023-08-21T06:10:44;11.48;;;5.78;;
25333;SDS011;24559;53.590;9.764;2023-08-21T06:13:10;13.57;;;5.43;;
25333;SDS011;24559;53.590;9.764;2023-08-21T06:15:36;11.40;;;5.25;;
25333;SDS011;24559;53.590;9.764;2023-08-21T06:18:03;11.45;;;4.93;;
25333;SDS011;24559;53.590;9.764;2023-08-21T06:20:30;16.48;;;5.75;;
25333;SDS011;24559;53.590;9.764;2023-08-21T06:22:56;11.90;;;4.32;;
25333;SDS011;24559;53.590;9.764;2023-08-21T06:25:22;13.52;;;5.32;;
25333;SDS011;24559;53.590;9.764;2023-08-21T06:27:48;14.80;;;5.13;;
25333;SDS011;24559;53.590;9.764;2023-08-21T06:30:14;19.98;;;5.63;;
25333;SDS011;24559;53.590;9.764;2023-08-21T06:32:43;13.73;;;4.30;;
25333;SDS011;24559;53.590;9.764;2023-08-21T06:35:10;10.77;;;4.05;;
25333;SDS011;24559;53.590;9.764;2023-08-21T06:37:36;11.05;;;4.22;;
25333;SDS011;24559;53.590;9.764;2023-08-21T06:40:02;16.70;;;4.13;;
25333;SDS011;24559;53.590;9.764;2023-08-21T06:42:29;11.20;;;3.75;;
25333;SDS011;24559;53.590;9.764;2023-08-21T06:44:55;11.43;;;3.70;;
25333;SDS011;24559;53.590;9.764;2023-08-21T06:47:22;13.95;;;3.17;;
25333;SDS011;24559;53.590;9.764;2023-08-21T06:49:48;12.35;;;3.10;;
25333;SDS011;24559;53.590;9.764;2023-08-21T06:52:14;12.48;;;2.88;;
25333;SDS011;24559;53.590;9.764;2023-08-21T06:54:41;11.05;;;3.25;;
25333;SDS011;24559;53.590;9.764;2023-08-21T06:57:07;10.40;;;2.80;;
25333;SDS011;24559;53.590;9.764;2023-08-21T06:59:33;9.13;;;3.35;;
25333;SDS011;24559;53.590;9.764;2023-08-21T07:02:05;12.57;;;3.03;;
25333;SDS011;24559;53.590;9.764;2023-08-21T07:04:31;11.40;;;2.88;;
25333;SDS011;24559;53.590;9.764;2023-08-21T07:07:01;7.40;;;2.65;;
25333;SDS011;24559;53.590;9.764;2023-08-21T07:09:27;8.93;;;2.75;;
25333;SDS011;24559;53.590;9.764;2023-08-21T07:11:54;11.95;;;2.65;;
25333;SDS011;24559;53.590;9.764;2023-08-21T07:14:20;9.45;;;2.40;;
25333;SDS011;24559;53.590;9.764;2023-08-21T07:16:46;8.25;;;2.53;;
25333;SDS011;24559;53.590;9.764;2023-08-21T07:19:12;11.15;;;2.80;;
25333;SDS011;24559;53.590;9.764;2023-08-21T07:21:39;7.70;;;2.28;;
25333;SDS011;24559;53.590;9.764;2023-08-21T07:24:05;5.93;;;2.30;;
25333;SDS011;24559;53.590;9.764;2023-08-21T07:26:31;6.18;;;2.20;;
25333;SDS011;24559;53.590;9.764;2023-08-21T07:28:58;7.22;;;1.90;;
25333;SDS011;24559;53.590;9.764;2023-08-21T07:31:24;7.32;;;1.90;;
25333;SDS011;24559;53.590;9.764;2023-08-21T07:33:50;8.65;;;2.28;;
25333;SDS011;24559;53.590;9.764;2023-08-21T07:36:16;8.95;;;2.40;;
25333;SDS011;24559;53.590;9.764;2023-08-21T07:38:43;7.63;;;2.30;;
25333;SDS011;24559;53.590;9.764;2023-08-21T07:41:10;7.68;;;2.42;;
25333;SDS011;24559;53.590;9.764;2023-08-21T07:43:36;5.63;;;1.77;;
25333;SDS011;24559;53.590;9.764;2023-08-21T07:46:03;8.02;;;2.42;;
25333;SDS011;24559;53.590;9.764;2023-08-21T07:48:30;7.55;;;2.00;;
25333;SDS011;24559;53.590;9.764;2023-08-21T07:50:57;7.97;;;1.73;;
25333;SDS011;24559;53.590;9.764;2023-08-21T07:53:26;5.13;;;1.48;;
25333;SDS011;24559;53.590;9.764;2023-08-21T07:55:52;6.10;;;1.95;;
25333;SDS011;24559;53.590;9.764;2023-08-21T07:58:19;6.60;;;1.80;;
25333;SDS011;24559;53.590;9.764;2023-08-21T08:00:45;4.15;;;1.50;;
25333;SDS011;24559;53.590;9.764;2023-08-21T08:03:11;5.95;;;1.48;;
25333;SDS011;24559;53.590;9.764;2023-08-21T08:05:39;8.77;;;1.55;;
25333;SDS011;24559;53.590;9.764;2023-08-21T08:08:06;5.78;;;2.00;;
25333;SDS011;24559;53.590;9.764;2023-08-21T08:10:33;5.53;;;1.55;;
25333;SDS011;24559;53.590;9.764;2023-08-21T08:12:59;4.40;;;1.48;;
25333;SDS011;24559;53.590;9.764;2023-08-21T08:15:26;5.47;;;1.45;;
25333;SDS011;24559;53.590;9.764;2023-08-21T08:17:53;5.93;;;1.40;;
25333;SDS011;24559;53.590;9.764;2023-08-21T08:20:20;6.22;;;1.50;;
25333;SDS011;24559;53.590;9.764;2023-08-21T08:22:46;4.25;;;1.80;;
25333;SDS011;24559;53.590;9.764;2023-08-21T08:25:12;4.78;;;1.60;;
25333;SDS011;24559;53.590;9.764;2023-08-21T08:27:39;6.25;;;1.55;;
25333;SDS011;24559;53.590;9.764;2023-08-21T08:30:05;3.55;;;1.63;;
25333;SDS011;24559;53.590;9.764;2023-08-21T08:32:31;3.53;;;1.40;;
25333;SDS011;24559;53.590;9.764;2023-08-21T08:34:58;3.58;;;1.10;;
25333;SDS011;24559;53.590;9.764;2023-08-21T08:37:24;2.95;;;0.95;;
25333;SDS011;24559;53.590;9.764;2023-08-21T08:39:50;3.55;;;1.50;;
25333;SDS011;24559;53.590;9.764;2023-08-21T08:42:16;4.32;;;1.55;;
25333;SDS011;24559;53.590;9.764;2023-08-21T08:44:43;4.45;;;1.48;;
25333;SDS011;24559;53.590;9.764;2023-08-21T08:47:10;5.35;;;1.40;;
25333;SDS011;24559;53.590;9.764;2023-08-21T08:49:39;4.35;;;1.52;;
25333;SDS011;24559;53.590;9.764;2023-08-21T08:52:05;3.22;;;1.27;;
25333;SDS011;24559;53.590;9.764;2023-08-21T08:54:32;4.63;;;1.42;;
25333;SDS011;24559;53.590;9.764;2023-08-21T08:57:01;2.72;;;1.25;;
25333;SDS011;24559;53.590;9.764;2023-08-21T08:59:29;2.72;;;1.10;;
25333;SDS011;24559;53.590;9.764;2023-08-21T09:01:56;2.90;;;1.10;;
25333;SDS011;24559;53.590;9.764;2023-08-21T09:04:22;4.20;;;1.42;;
25333;SDS011;24559;53.590;9.764;2023-08-21T09:06:49;3.65;;;1.42;;
25333;SDS011;24559;53.590;9.764;2023-08-21T09:09:15;2.92;;;1.05;;
25333;SDS011;24559;53.590;9.764;2023-08-21T09:11:46;2.20;;;1.05;;
25333;SDS011;24559;53.590;9.764;2023-08-21T09:14:13;3.70;;;1.02;;
25333;SDS011;24559;53.590;9.764;2023-08-21T09:16:56;2.72;;;0.98;;
25333;SDS011;24559;53.590;9.764;2023-08-21T09:19:23;2.65;;;1.00;;
25333;SDS011;24559;53.590;9.764;2023-08-21T09:21:49;1.67;;;1.13;;
25333;SDS011;24559;53.590;9.764;2023-08-21T09:24:15;2.20;;;1.10;;
25333;SDS011;24559;53.590;9.764;2023-08-21T09:26:42;3.38;;;1.08;;
25333;SDS011;24559;53.590;9.764;2023-08-21T09:29:08;2.22;;;1.10;;
25333;SDS011;24559;53.590;9.764;2023-08-21T09:31:36;2.95;;;1.30;;
25333;SDS011;24559;53.590;9.764;2023-08-21T09:34:03;3.58;;;1.05;;
25333;SDS011;24559;53.590;9.764;2023-08-21T09:36:33;2.95;;;1.63;;
25333;SDS011;24559;53.590;9.764;2023-08-21T09:38:59;4.78;;;1.67;;
25333;SDS011;24559;53.590;9.764;2023-08-21T09:41:25;4.60;;;1.20;;
25333;SDS011;24559;53.590;9.764;2023-08-21T09:43:52;3.40;;;1.33;;
25333;SDS011;24559;53.590;9.764;2023-08-21T09:46:25;3.70;;;1.33;;
25333;SDS011;24559;53.590;9.764;2023-08-21T09:48:51;3.75;;;1.30;;
25333;SDS011;24559;53.590;9.764;2023-08-21T09:51:18;8.15;;;1.20;;
25333;SDS011;24559;53.590;9.764;2023-08-21T09:53:44;2.05;;;1.20;;
25333;SDS011;24559;53.590;9.764;2023-08-21T09:56:11;2.70;;;1.00;;
25333;SDS011;24559;53.590;9.764;2023-08-21T09:58:37;4.07;;;1.40;;
25333;SDS011;24559;53.590;9.764;2023-08-21T10:01:04;3.50;;;1.25;;
25333;SDS011;24559;53.590;9.764;2023-08-21T10:03:41;3.47;;;1.25;;
25333;SDS011;24559;53.590;9.764;2023-08-21T10:06:10;2.15;;;1.20;;
25333;SDS011;24559;53.590;9.764;2023-08-21T10:08:37;5.18;;;1.30;;
25333;SDS011;24559;53.590;9.764;2023-08-21T10:11:07;3.88;;;1.20;;
25333;SDS011;24559;53.590;9.764;2023-08-21T10:13:35;4.20;;;1.42;;
25333;SDS011;24559;53.590;9.764;2023-08-21T10:16:02;3.65;;;1.38;;
25333;SDS011;24559;53.590;9.764;2023-08-21T10:18:32;3.97;;;1.25;;
25333;SDS011;24559;53.590;9.764;2023-08-21T10:21:18;7.07;;;1.57;;
25333;SDS011;24559;53.590;9.764;2023-08-21T10:23:48;4.43;;;1.40;;
25333;SDS011;24559;53.590;9.764;2023-08-21T10:26:14;2.28;;;1.02;;
25333;SDS011;24559;53.590;9.764;2023-08-21T10:33:53;3.97;;;1.50;;
25333;SDS011;24559;53.590;9.764;2023-08-21T10:36:36;3.03;;;1.02;;
25333;SDS011;24559;53.590;9.764;2023-08-21T10:39:03;4.15;;;1.17;;
25333;SDS011;24559;53.590;9.764;2023-08-21T10:41:32;4.20;;;1.55;;
25333;SDS011;24559;53.590;9.764;2023-08-21T10:44:02;2.65;;;1.00;;
25333;SDS011;24559;53.590;9.764;2023-08-21T10:46:49;3.90;;;1.10;;
25333;SDS011;24559;53.590;9.764;2023-08-21T10:49:15;4.07;;;1.00;;
25333;SDS011;24559;53.590;9.764;2023-08-21T10:51:42;5.57;;;1.63;;
25333;SDS011;24559;53.590;9.764;2023-08-21T10:54:15;5.40;;;1.42;;
25333;SDS011;24559;53.590;9.764;2023-08-21T10:56:41;3.22;;;1.10;;
25333;SDS011;24559;53.590;9.764;2023-08-21T10:59:07;2.10;;;0.88;;
25333;SDS011;24559;53.590;9.764;2023-08-21T11:01:42;4.50;;;1.35;;
25333;SDS011;24559;53.590;9.764;2023-08-21T11:04:10;3.60;;;1.17;;
25333;SDS011;24559;53.590;9.764;2023-08-21T11:06:37;4.00;;;1.48;;
25333;SDS011;24559;53.590;9.764;2023-08-21T11:09:04;1.23;;;0.90;;
25333;SDS011;24559;53.590;9.764;2023-08-21T11:11:30;7.22;;;1.27;;
25333;SDS011;24559;53.590;9.764;2023-08-21T11:13:56;7.63;;;2.00;;
25333;SDS011;24559;53.590;9.764;2023-08-21T11:16:24;4.75;;;1.10;;
25333;SDS011;24559;53.590;9.764;2023-08-21T11:18:51;4.63;;;1.60;;
25333;SDS011;24559;53.590;9.764;2023-08-21T11:21:17;3.40;;;1.38;;
25333;SDS011;24559;53.590;9.764;2023-08-21T11:23:43;5.18;;;1.45;;
25333;SDS011;24559;53.590;9.764;2023-08-21T11:26:10;2.60;;;1.38;;
25333;SDS011;24559;53.590;9.764;2023-08-21T11:28:37;6.13;;;1.40;;
25333;SDS011;24559;53.590;9.764;2023-08-21T11:31:03;4.05;;;1.58;;
25333;SDS011;24559;53.590;9.764;2023-08-21T11:33:30;3.60;;;1.40;;
25333;SDS011;24559;53.590;9.764;2023-08-21T11:35:56;3.22;;;1.15;;
25333;SDS011;24559;53.590;9.764;2023-08-21T11:38:24;1.65;;;0.93;;
25333;SDS011;24559;53.590;9.764;2023-08-21T11:40:58;4.60;;;1.80;;
25333;SDS011;24559;53.590;9.764;2023-08-21T11:46:01;2.53;;;1.10;;
25333;SDS011;24559;53.590;9.764;2023-08-21T11:48:28;2.50;;;1.20;;
25333;SDS011;24559;53.590;9.764;2023-08-21T11:50:54;3.47;;;1.30;;
25333;SDS011;24559;53.590;9.764;2023-08-21T11:56:16;3.22;;;1.52;;
25333;SDS011;24559;53.590;9.764;2023-08-21T11:58:44;2.80;;;0.98;;
25333;SDS011;24559;53.590;9.764;2023-08-21T12:01:18;2.47;;;0.98;;
25333;SDS011;24559;53.590;9.764;2023-08-21T12:03:44;2.22;;;1.00;;
25333;SDS011;24559;53.590;9.764;2023-08-21T12:06:11;4.05;;;1.30;;
25333;SDS011;24559;53.590;9.764;2023-08-21T12:08:38;2.72;;;1.15;;
25333;SDS011;24559;53.590;9.764;2023-08-21T12:11:04;2.17;;;1.10;;
25333;SDS011;24559;53.590;9.764;2023-08-21T12:13:31;2.75;;;1.00;;
25333;SDS011;24559;53.590;9.764;2023-08-21T12:15:57;2.55;;;1.00;;
25333;SDS011;24559;53.590;9.764;2023-08-21T12:18:24;2.33;;;0.90;;
25333;SDS011;24559;53.590;9.764;2023-08-21T12:20:50;1.38;;;1.23;;
25333;SDS011;24559;53.590;9.764;2023-08-21T12:23:16;3.47;;;1.27;;
25333;SDS011;24559;53.590;9.764;2023-08-21T12:25:42;1.58;;;0.90;;
25333;SDS011;24559;53.590;9.764;2023-08-21T12:28:10;0.95;;;0.82;;
25333;SDS011;24559;53.590;9.764;2023-08-21T12:30:36;2.35;;;0.90;;
25333;SDS011;24559;53.590;9.764;2023-08-21T12:33:03;1.67;;;1.05;;
25333;SDS011;24559;53.590;9.764;2023-08-21T12:35:29;1.58;;;0.90;;
25333;SDS011;24559;53.590;9.764;2023-08-21T12:37:56;1.23;;;0.88;;
25333;SDS011;24559;53.590;9.764;2023-08-21T12:40:22;2.60;;;1.02;;
25333;SDS011;24559;53.590;9.764;2023-08-21T12:42:49;3.22;;;1.10;;
25333;SDS011;24559;53.590;9.764;2023-08-21T12:45:16;2.40;;;0.93;;
25333;SDS011;24559;53.590;9.764;2023-08-21T12:47:42;1.60;;;1.00;;
25333;SDS011;24559;53.590;9.764;2023-08-21T12:50:08;2.28;;;1.10;;
25333;SDS011;24559;53.590;9.764;2023-08-21T12:52:34;1.67;;;1.15;;
25333;SDS011;24559;53.590;9.764;2023-08-21T12:55:00;1.25;;;0.73;;
25333;SDS011;24559;53.590;9.764;2023-08-21T12:57:31;3.22;;;1.13;;
25333;SDS011;24559;53.590;9.764;2023-08-21T12:59:57;2.25;;;1.00;;
25333;SDS011;24559;53.590;9.764;2023-08-21T13:02:23;2.50;;;1.25;;
25333;SDS011;24559;53.590;9.764;2023-08-21T13:04:52;2.28;;;0.95;;
25333;SDS011;24559;53.590;9.764;2023-08-21T13:07:18;1.95;;;1.02;;
25333;SDS011;24559;53.590;9.764;2023-08-21T13:09:44;1.75;;;0.90;;
25333;SDS011;24559;53.590;9.764;2023-08-21T13:12:10;3.90;;;1.08;;
25333;SDS011;24559;53.590;9.764;2023-08-21T13:14:36;1.55;;;1.00;;
25333;SDS011;24559;53.590;9.764;2023-08-21T13:17:03;1.50;;;0.90;;
25333;SDS011;24559;53.590;9.764;2023-08-21T13:19:29;1.20;;;1.10;;
25333;SDS011;24559;53.590;9.764;2023-08-21T13:21:55;1.73;;;1.30;;
25333;SDS011;24559;53.590;9.764;2023-08-21T13:24:21;1.85;;;1.27;;
25333;SDS011;24559;53.590;9.764;2023-08-21T13:26:47;2.00;;;0.80;;
25333;SDS011;24559;53.590;9.764;2023-08-21T13:29:14;1.95;;;1.05;;
25333;SDS011;24559;53.590;9.764;2023-08-21T13:31:40;2.25;;;0.90;;
25333;SDS011;24559;53.590;9.764;2023-08-21T13:34:06;1.05;;;0.88;;
25333;SDS011;24559;53.590;9.764;2023-08-21T13:36:32;2.70;;;1.15;;
25333;SDS011;24559;53.590;9.764;2023-08-21T13:38:58;1.70;;;0.90;;
25333;SDS011;24559;53.590;9.764;2023-08-21T13:41:24;1.70;;;0.98;;
25333;SDS011;24559;53.590;9.764;2023-08-21T13:43:51;3.42;;;1.60;;
25333;SDS011;24559;53.590;9.764;2023-08-21T13:46:17;3.83;;;0.98;;
25333;SDS011;24559;53.590;9.764;2023-08-21T13:48:43;1.92;;;0.88;;
25333;SDS011;24559;53.590;9.764;2023-08-21T13:51:09;3.40;;;1.20;;
25333;SDS011;24559;53.590;9.764;2023-08-21T13:53:35;3.03;;;1.10;;
25333;SDS011;24559;53.590;9.764;2023-08-21T13:56:01;0.98;;;0.85;;
25333;SDS011;24559;53.590;9.764;2023-08-21T13:58:27;2.10;;;1.00;;
25333;SDS011;24559;53.590;9.764;2023-08-21T14:00:54;0.90;;;0.80;;
25333;SDS011;24559;53.590;9.764;2023-08-21T14:03:22;1.65;;;0.88;;
25333;SDS011;24559;53.590;9.764;2023-08-21T14:05:48;1.95;;;0.93;;
25333;SDS011;24559;53.590;9.764;2023-08-21T14:08:14;1.67;;;0.95;;
25333;SDS011;24559;53.590;9.764;2023-08-21T14:10:40;4.72;;;0.90;;
25333;SDS011;24559;53.590;9.764;2023-08-21T14:13:06;0.90;;;0.80;;
25333;SDS011;24559;53.590;9.764;2023-08-21T14:15:33;1.15;;;1.02;;
25333;SDS011;24559;53.590;9.764;2023-08-21T14:17:59;2.65;;;1.15;;
25333;SDS011;24559;53.590;9.764;2023-08-21T14:20:26;2.53;;;1.55;;
25333;SDS011;24559;53.590;9.764;2023-08-21T14:22:52;1.60;;;1.10;;
25333;SDS011;24559;53.590;9.764;2023-08-21T14:25:18;1.00;;;0.80;;
25333;SDS011;24559;53.590;9.764;2023-08-21T14:27:44;1.98;;;0.90;;
25333;SDS011;24559;53.590;9.764;2023-08-21T14:30:10;1.60;;;1.05;;
25333;SDS011;24559;53.590;9.764;2023-08-21T14:32:37;1.95;;;0.80;;
25333;SDS011;24559;53.590;9.764;2023-08-21T14:35:04;1.70;;;1.15;;
25333;SDS011;24559;53.590;9.764;2023-08-21T14:37:32;2.35;;;1.10;;
25333;SDS011;24559;53.590;9.764;2023-08-21T14:39:58;3.58;;;1.35;;
25333;SDS011;24559;53.590;9.764;2023-08-21T14:42:25;1.60;;;0.90;;
25333;SDS011;24559;53.590;9.764;2023-08-21T14:44:51;2.72;;;1.35;;
25333;SDS011;24559;53.590;9.764;2023-08-21T14:47:17;1.20;;;1.00;;
25333;SDS011;24559;53.590;9.764;2023-08-21T14:49:43;2.75;;;1.35;;
25333;SDS011;24559;53.590;9.764;2023-08-21T14:52:09;1.65;;;0.95;;
25333;SDS011;24559;53.590;9.764;2023-08-21T14:54:35;2.10;;;0.95;;
25333;SDS011;24559;53.590;9.764;2023-08-21T14:57:01;1.30;;;1.20;;